Time;durP1;ratioP1;P1;durP2;ratioP2;P2;SDS_P1;SDS_P2;PMS_P1;PMS_P2;Temp;Humidity;BMP_temperature;BMP_pressure;BME280_temperature;BME280_humidity;BME280_pressure;Samples;Min_cycle;Max_cycle;Signal;HPM_P1;HPM_P2
2021/09/07 00:00:34;;;;;;;25.52;15.68;;;15.30;99.90;;;;;;4953890;28;20067;-76
2021/09/07 00:02:59;;;;;;;25.73;16.92;;;15.30;99.90;;;;;;4953146;28;20052;-76
2021/09/07 00:05:25;;;;;;;21.85;16.20;;;15.40;99.90;;;;;;4951479;28;20083;-76
2021/09/07 00:07:50;;;;;;;27.70;17.45;;;15.40;99.90;;;;;;4955358;28;20039;-76
2021/09/07 00:10:16;;;;;;;24.85;16.52;;;15.40;99.90;;;;;;4954789;29;20472;-76
2021/09/07 00:12:43;;;;;;;27.42;17.15;;;15.50;99.90;;;;;;4952933;29;20050;-76
2021/09/07 00:15:11;;;;;;;29.23;18.10;;;15.50;99.90;;;;;;4953142;28;20426;-75
2021/09/07 00:17:37;;;;;;;25.63;17.60;;;15.50;99.90;;;;;;4953883;28;20023;-75
2021/09/07 00:20:04;;;;;;;25.42;17.73;;;15.60;99.90;;;;;;4953064;28;20050;-75
2021/09/07 00:22:30;;;;;;;34.15;18.90;;;15.60;99.90;;;;;;4955255;28;20126;-76
2021/09/07 00:24:56;;;;;;;29.50;18.55;;;15.70;99.90;;;;;;4952502;28;20027;-78
2021/09/07 00:27:21;;;;;;;26.95;17.90;;;15.70;99.90;;;;;;4953639;28;20024;-76
2021/09/07 00:29:47;;;;;;;30.75;18.45;;;15.70;99.90;;;;;;4966676;28;20396;-76
2021/09/07 00:32:12;;;;;;;28.70;18.45;;;15.80;99.90;;;;;;4952835;29;20083;-76
2021/09/07 00:34:38;;;;;;;29.30;19.75;;;15.80;99.90;;;;;;4955297;28;20031;-76
2021/09/07 00:37:03;;;;;;;29.65;18.33;;;15.80;99.90;;;;;;4954856;29;20093;-76
2021/09/07 00:39:29;;;;;;;25.45;17.27;;;15.80;99.90;;;;;;4953497;28;20097;-76
2021/09/07 00:41:55;;;;;;;27.00;16.17;;;15.90;99.90;;;;;;4953874;28;20159;-75
2021/09/07 00:44:24;;;;;;;25.95;16.80;;;15.80;99.90;;;;;;4953952;28;20047;-75
2021/09/07 00:46:55;;;;;;;30.85;18.45;;;15.90;99.90;;;;;;4952408;29;20059;-77
2021/09/07 00:49:21;;;;;;;24.60;16.27;;;15.90;99.90;;;;;;4954162;28;20035;-75
2021/09/07 00:51:48;;;;;;;26.95;16.88;;;15.90;99.90;;;;;;4954998;28;20515;-75
2021/09/07 00:54:14;;;;;;;29.52;17.98;;;15.90;99.90;;;;;;4951026;28;20046;-75
2021/09/07 00:56:41;;;;;;;26.02;17.42;;;15.90;99.90;;;;;;4956691;28;20115;-75
2021/09/07 00:59:08;;;;;;;27.63;18.42;;;15.90;99.90;;;;;;4947599;28;20058;-75
2021/09/07 01:01:34;;;;;;;26.00;16.90;;;16.00;99.90;;;;;;4954308;28;20028;-75
2021/09/07 01:04:00;;;;;;;27.55;18.17;;;15.90;99.90;;;;;;4948856;28;20027;-75
2021/09/07 01:06:26;;;;;;;28.38;17.83;;;15.90;99.90;;;;;;4953906;29;20093;-75
2021/09/07 01:08:53;;;;;;;29.75;18.92;;;15.90;99.90;;;;;;4954472;28;20029;-75
2021/09/07 01:11:18;;;;;;;28.27;17.50;;;15.90;99.90;;;;;;4949595;28;20043;-75
2021/09/07 01:13:45;;;;;;;28.88;18.38;;;15.90;99.90;;;;;;4953929;28;20047;-75
2021/09/07 01:16:11;;;;;;;33.10;18.63;;;15.90;99.90;;;;;;4952192;28;20106;-75
2021/09/07 01:18:36;;;;;;;27.00;18.05;;;15.90;99.90;;;;;;4952155;28;20107;-75
2021/09/07 01:21:09;;;;;;;34.17;20.38;;;15.90;99.90;;;;;;4952942;29;20143;-76
2021/09/07 01:23:35;;;;;;;31.75;19.17;;;15.80;99.90;;;;;;4949720;28;20028;-75
2021/09/07 01:26:00;;;;;;;24.85;16.40;;;15.80;99.90;;;;;;4945746;29;20400;-75
2021/09/07 01:28:26;;;;;;;28.10;17.77;;;15.80;99.90;;;;;;4952574;29;20031;-75
2021/09/07 01:30:51;;;;;;;25.98;16.88;;;15.70;99.90;;;;;;4953005;29;20105;-76
2021/09/07 01:33:18;;;;;;;27.27;18.00;;;15.70;99.90;;;;;;4952238;29;20043;-75
2021/09/07 01:35:43;;;;;;;33.20;19.95;;;15.60;99.90;;;;;;4954126;28;20551;-75
2021/09/07 01:38:09;;;;;;;30.70;18.73;;;15.60;99.90;;;;;;4953136;28;20047;-75
2021/09/07 01:40:34;;;;;;;30.25;19.23;;;15.50;99.90;;;;;;4952163;28;20031;-75
2021/09/07 01:43:00;;;;;;;30.85;19.60;;;15.50;99.90;;;;;;4953975;28;20039;-75
2021/09/07 01:45:25;;;;;;;33.53;19.15;;;15.40;99.90;;;;;;4952916;28;20090;-75
2021/09/07 01:47:51;;;;;;;29.63;18.10;;;15.40;99.90;;;;;;4954250;29;20066;-75
2021/09/07 01:50:17;;;;;;;31.13;18.33;;;15.30;99.90;;;;;;4950793;29;20031;-75
2021/09/07 01:52:43;;;;;;;33.25;20.17;;;15.20;99.90;;;;;;4951303;28;20036;-75
2021/09/07 01:55:09;;;;;;;32.92;20.05;;;15.20;99.90;;;;;;4950172;29;20421;-75
2021/09/07 01:57:34;;;;;;;31.67;20.67;;;15.20;99.90;;;;;;4953594;28;20423;-75
2021/09/07 02:00:00;;;;;;;31.35;20.10;;;15.10;99.90;;;;;;4952162;29;20034;-75
2021/09/07 02:02:26;;;;;;;32.80;19.60;;;15.10;99.90;;;;;;4949300;29;20031;-75
2021/09/07 02:04:51;;;;;;;31.88;20.73;;;15.00;99.90;;;;;;4951934;28;20399;-75
2021/09/07 02:07:17;;;;;;;25.90;16.73;;;15.00;99.90;;;;;;4953673;28;20035;-75
2021/09/07 02:09:42;;;;;;;24.63;16.55;;;14.90;99.90;;;;;;4951115;29;20467;-75
2021/09/07 02:12:08;;;;;;;33.85;20.42;;;14.90;99.90;;;;;;4948581;28;20086;-75
2021/09/07 02:14:33;;;;;;;33.85;19.40;;;14.80;99.90;;;;;;4952602;28;20043;-75
2021/09/07 02:16:59;;;;;;;34.10;21.38;;;14.80;99.90;;;;;;4952492;29;20404;-76
2021/09/07 02:19:25;;;;;;;26.45;18.70;;;14.80;99.90;;;;;;4947761;29;20075;-75
2021/09/07 02:21:50;;;;;;;31.83;19.40;;;14.70;99.90;;;;;;4950154;29;20086;-75
2021/09/07 02:24:16;;;;;;;29.02;18.20;;;14.70;99.90;;;;;;4953226;29;20468;-75
2021/09/07 02:26:42;;;;;;;33.50;20.40;;;14.70;99.90;;;;;;4951943;28;20492;-75
2021/09/07 02:29:09;;;;;;;36.15;20.80;;;14.70;99.90;;;;;;4953117;28;20435;-75
2021/09/07 02:31:35;;;;;;;31.10;19.17;;;14.70;99.90;;;;;;4951378;28;20398;-75
2021/09/07 02:34:00;;;;;;;26.67;17.35;;;14.70;99.90;;;;;;4939863;29;20043;-75
2021/09/07 02:36:26;;;;;;;22.92;14.48;;;14.70;99.90;;;;;;4951838;29;20358;-76
2021/09/07 02:38:54;;;;;;;21.35;12.77;;;14.70;99.90;;;;;;4952229;28;20036;-75
2021/09/07 02:41:20;;;;;;;20.25;13.32;;;14.70;99.90;;;;;;4951516;28;20035;-75
2021/09/07 02:43:46;;;;;;;27.58;16.05;;;14.70;99.90;;;;;;4950756;28;20070;-75
2021/09/07 02:46:11;;;;;;;26.42;15.90;;;14.80;99.90;;;;;;4950983;28;20071;-75
2021/09/07 02:48:37;;;;;;;19.73;12.45;;;14.80;99.90;;;;;;4952471;28;20031;-75
2021/09/07 02:51:03;;;;;;;19.83;12.30;;;14.80;99.90;;;;;;4950100;28;20035;-75
2021/09/07 02:53:28;;;;;;;18.20;11.98;;;14.80;99.90;;;;;;4952890;28;20039;-75
2021/09/07 02:55:54;;;;;;;22.92;14.85;;;14.80;99.90;;;;;;4952384;28;20066;-75
2021/09/07 02:58:19;;;;;;;30.13;18.33;;;14.80;99.90;;;;;;4951223;29;20070;-75
2021/09/07 03:00:45;;;;;;;29.15;16.95;;;14.90;99.90;;;;;;4951374;28;20027;-75
2021/09/07 03:03:10;;;;;;;31.42;18.90;;;14.90;99.90;;;;;;4951796;28;20082;-75
2021/09/07 03:05:36;;;;;;;33.53;18.77;;;15.00;99.90;;;;;;4950945;28;20032;-75
2021/09/07 03:08:02;;;;;;;29.90;18.90;;;15.10;99.90;;;;;;4952551;29;20352;-75
2021/09/07 03:10:28;;;;;;;27.85;18.00;;;15.10;99.90;;;;;;4950491;28;20035;-76
2021/09/07 03:12:54;;;;;;;31.17;19.13;;;15.10;99.90;;;;;;4950914;28;20041;-75
2021/09/07 03:15:22;;;;;;;31.52;20.20;;;15.20;99.90;;;;;;4951479;29;20170;-75
2021/09/07 03:17:47;;;;;;;29.20;18.27;;;15.20;99.90;;;;;;4951583;29;20071;-75
2021/09/07 03:20:13;;;;;;;35.08;20.63;;;15.20;99.90;;;;;;4952156;29;20548;-76
2021/09/07 03:22:38;;;;;;;32.90;20.38;;;15.20;99.90;;;;;;4951298;29;20023;-75
2021/09/07 03:25:04;;;;;;;32.45;19.40;;;15.30;99.90;;;;;;4951028;29;20027;-76
2021/09/07 03:27:30;;;;;;;33.47;20.05;;;15.30;99.90;;;;;;4952828;28;20050;-74
2021/09/07 03:29:55;;;;;;;30.85;18.60;;;15.30;99.90;;;;;;4949846;28;20090;-76
2021/09/07 03:32:21;;;;;;;30.48;18.90;;;15.30;99.90;;;;;;4951033;29;20031;-75
2021/09/07 03:34:46;;;;;;;32.70;19.80;;;15.30;99.90;;;;;;4947693;28;20078;-74
2021/09/07 03:37:12;;;;;;;33.25;20.67;;;15.30;99.90;;;;;;4949643;28;20376;-76
2021/09/07 03:39:38;;;;;;;30.42;19.38;;;15.30;99.90;;;;;;4950699;28;20108;-75
2021/09/07 03:42:03;;;;;;;33.50;18.95;;;15.40;99.90;;;;;;4949834;29;20428;-75
2021/09/07 03:44:29;;;;;;;33.85;20.20;;;15.40;99.90;;;;;;4950672;29;20058;-76
2021/09/07 03:46:54;;;;;;;34.35;19.55;;;15.40;99.90;;;;;;4952154;28;20099;-77
2021/09/07 03:49:20;;;;;;;32.15;20.77;;;15.40;99.90;;;;;;4950636;28;22455;-76
2021/09/07 03:51:46;;;;;;;37.17;21.58;;;15.40;99.90;;;;;;4950768;28;20441;-77
2021/09/07 03:54:11;;;;;;;40.30;22.40;;;15.40;99.90;;;;;;4952018;29;20519;-77
2021/09/07 03:56:37;;;;;;;31.73;20.27;;;15.40;99.90;;;;;;4951552;29;20031;-76
2021/09/07 03:59:03;;;;;;;33.65;20.70;;;15.40;99.90;;;;;;4945727;28;20399;-77
2021/09/07 04:01:29;;;;;;;31.92;18.88;;;15.40;99.90;;;;;;4952446;28;20064;-77
2021/09/07 04:03:55;;;;;;;33.05;19.27;;;15.40;99.90;;;;;;4953035;29;20522;-77
2021/09/07 04:06:20;;;;;;;31.63;19.20;;;15.40;99.90;;;;;;4952652;28;20036;-77
2021/09/07 04:08:46;;;;;;;33.45;19.83;;;15.30;99.90;;;;;;4953270;29;20163;-76
2021/09/07 04:11:11;;;;;;;29.33;19.05;;;15.30;99.90;;;;;;4953997;28;20024;-76
2021/09/07 04:13:37;;;;;;;33.22;19.40;;;15.20;99.90;;;;;;4953477;28;20035;-77
2021/09/07 04:16:02;;;;;;;31.92;19.80;;;15.20;99.90;;;;;;4953290;28;20498;-76
2021/09/07 04:18:28;;;;;;;35.83;22.00;;;15.10;99.90;;;;;;4954716;28;20034;-76
2021/09/07 04:20:53;;;;;;;36.00;20.80;;;15.10;99.90;;;;;;4949070;28;20042;-76
2021/09/07 04:23:19;;;;;;;33.78;20.45;;;15.00;99.90;;;;;;4952561;29;20396;-76
2021/09/07 04:25:44;;;;;;;36.65;21.08;;;15.00;99.90;;;;;;4944232;28;20035;-77
2021/09/07 04:28:10;;;;;;;36.70;23.08;;;15.00;99.90;;;;;;4947027;28;20462;-76
2021/09/07 04:30:35;;;;;;;39.20;22.75;;;15.00;99.90;;;;;;4955350;28;20031;-76
2021/09/07 04:33:01;;;;;;;33.47;20.98;;;14.90;99.90;;;;;;4947457;29;20031;-77
2021/09/07 04:35:26;;;;;;;38.30;23.60;;;14.90;99.90;;;;;;4944733;28;20547;-76
2021/09/07 04:37:52;;;;;;;38.30;20.98;;;14.80;99.90;;;;;;4950457;29;20046;-76
2021/09/07 04:40:18;;;;;;;28.80;18.15;;;14.80;99.90;;;;;;4951247;28;20036;-76
2021/09/07 04:42:43;;;;;;;28.65;17.17;;;14.80;99.90;;;;;;4948623;28;20032;-76
2021/09/07 04:45:09;;;;;;;30.13;17.55;;;14.70;99.90;;;;;;4946403;28;20225;-76
2021/09/07 04:47:34;;;;;;;30.65;18.20;;;14.70;99.90;;;;;;4946933;28;20035;-76
2021/09/07 04:50:00;;;;;;;32.35;18.35;;;14.60;99.90;;;;;;4950483;28;20027;-77
2021/09/07 04:52:26;;;;;;;36.67;20.92;;;14.60;99.90;;;;;;4951571;28;20476;-76
2021/09/07 04:54:51;;;;;;;34.53;18.90;;;14.60;99.90;;;;;;4948108;28;20674;-76
2021/09/07 04:57:17;;;;;;;39.58;23.45;;;14.60;99.90;;;;;;4950010;28;20061;-77
2021/09/07 04:59:42;;;;;;;41.08;23.08;;;14.60;99.90;;;;;;4948186;29;20034;-76
2021/09/07 05:02:08;;;;;;;43.38;25.75;;;14.60;99.90;;;;;;4947974;29;20049;-76
2021/09/07 05:04:33;;;;;;;39.97;23.42;;;14.50;99.90;;;;;;4945442;28;20027;-76
2021/09/07 05:06:59;;;;;;;33.90;21.40;;;14.50;99.90;;;;;;4944330;29;20031;-76
2021/09/07 05:09:24;;;;;;;37.65;21.98;;;14.50;99.90;;;;;;4949009;29;20101;-76
2021/09/07 05:11:50;;;;;;;40.33;22.30;;;14.50;99.90;;;;;;4947741;28;20077;-76
2021/09/07 05:14:15;;;;;;;41.47;23.38;;;14.50;99.90;;;;;;4954896;28;20031;-76
2021/09/07 05:16:41;;;;;;;47.50;27.23;;;14.40;99.90;;;;;;4950789;29;20384;-76
2021/09/07 05:19:09;;;;;;;45.65;24.92;;;14.40;99.90;;;;;;4950756;28;20138;-77
2021/09/07 05:21:34;;;;;;;38.55;22.90;;;14.40;99.90;;;;;;4948140;28;20030;-76
2021/09/07 05:24:00;;;;;;;43.90;24.77;;;14.40;99.90;;;;;;4950980;29;20035;-77
2021/09/07 05:26:25;;;;;;;43.78;25.05;;;14.40;99.90;;;;;;4949956;28;20122;-77
2021/09/07 05:28:51;;;;;;;41.97;23.92;;;14.40;99.90;;;;;;4953517;28;20493;-78
2021/09/07 05:31:17;;;;;;;41.70;22.95;;;14.40;99.90;;;;;;4951000;29;20023;-76
2021/09/07 05:33:43;;;;;;;39.58;22.83;;;14.40;99.90;;;;;;4953717;28;20131;-77
2021/09/07 05:36:09;;;;;;;31.33;19.10;;;14.40;99.90;;;;;;4941792;28;20103;-77
2021/09/07 05:38:35;;;;;;;38.17;20.92;;;14.40;99.90;;;;;;4945776;29;20031;-77
2021/09/07 05:41:00;;;;;;;28.83;18.67;;;14.50;99.90;;;;;;4947923;29;20169;-77
2021/09/07 05:43:26;;;;;;;38.22;22.60;;;14.50;99.90;;;;;;4945754;29;20456;-77
2021/09/07 05:45:51;;;;;;;41.20;23.48;;;14.50;99.90;;;;;;4953692;28;20062;-77
2021/09/07 05:48:17;;;;;;;38.45;22.73;;;14.50;99.90;;;;;;4952387;28;20114;-77
2021/09/07 05:50:43;;;;;;;38.30;22.67;;;14.50;99.90;;;;;;4988177;28;20035;-77
2021/09/07 05:53:08;;;;;;;43.10;23.63;;;14.60;99.90;;;;;;4952777;28;20047;-78
2021/09/07 05:55:34;;;;;;;36.22;20.55;;;14.60;99.90;;;;;;4962096;28;20107;-77
2021/09/07 05:58:00;;;;;;;38.45;22.15;;;14.60;99.90;;;;;;4946290;29;20069;-77
2021/09/07 06:00:26;;;;;;;40.67;22.98;;;14.60;99.90;;;;;;4953074;29;20027;-77
2021/09/07 06:02:52;;;;;;;35.28;21.42;;;14.60;99.90;;;;;;4948986;29;20038;-78
2021/09/07 06:05:18;;;;;;;38.30;22.65;;;14.70;99.90;;;;;;4953057;28;20126;-77
2021/09/07 06:07:43;;;;;;;34.17;21.85;;;14.70;99.90;;;;;;4953612;29;20027;-77
2021/09/07 06:10:09;;;;;;;37.97;22.83;;;14.80;99.90;;;;;;4952136;29;20035;-77
2021/09/07 06:12:35;;;;;;;39.45;23.42;;;14.80;99.90;;;;;;4948512;28;20031;-78
2021/09/07 06:15:01;;;;;;;44.03;24.05;;;14.90;99.90;;;;;;4951506;28;20030;-78
2021/09/07 06:17:27;;;;;;;48.70;24.38;;;14.90;99.90;;;;;;4951801;29;20035;-77
2021/09/07 06:19:53;;;;;;;37.55;23.33;;;15.00;99.90;;;;;;4953647;29;20024;-78
2021/09/07 06:22:18;;;;;;;41.05;24.00;;;15.00;99.90;;;;;;4950687;28;20030;-78
2021/09/07 06:24:44;;;;;;;44.13;25.95;;;15.10;99.90;;;;;;4952071;28;20054;-78
2021/09/07 06:27:09;;;;;;;47.03;26.13;;;15.20;99.90;;;;;;4951889;29;20035;-77
2021/09/07 06:29:35;;;;;;;42.17;24.35;;;15.30;99.90;;;;;;4951470;28;20118;-79
2021/09/07 06:32:00;;;;;;;49.28;27.85;;;15.40;99.90;;;;;;4952067;28;20023;-77
2021/09/07 06:34:26;;;;;;;50.72;31.88;;;15.60;99.90;;;;;;4950037;28;20039;-78
2021/09/07 06:36:53;;;;;;;52.00;31.15;;;15.70;99.90;;;;;;4944895;28;20102;-77
2021/09/07 06:39:19;;;;;;;55.60;33.08;;;16.00;99.90;;;;;;4953742;29;20027;-78
2021/09/07 06:41:45;;;;;;;49.30;30.48;;;16.10;99.90;;;;;;4950971;28;20030;-78
2021/09/07 06:44:10;;;;;;;50.40;30.67;;;16.20;99.90;;;;;;4951915;28;20058;-78
2021/09/07 06:46:36;;;;;;;49.72;30.42;;;16.50;99.90;;;;;;4952337;28;20035;-78
2021/09/07 06:49:01;;;;;;;53.00;32.10;;;16.60;99.90;;;;;;4951916;28;20030;-78
2021/09/07 06:51:27;;;;;;;53.10;31.60;;;16.70;99.90;;;;;;4951690;28;20052;-78
2021/09/07 06:53:52;;;;;;;52.03;32.55;;;16.80;99.90;;;;;;4949831;28;20090;-78
2021/09/07 06:56:18;;;;;;;51.35;31.35;;;17.00;99.90;;;;;;4951983;28;20027;-78
2021/09/07 06:58:43;;;;;;;48.22;30.60;;;17.10;99.90;;;;;;4950761;28;20039;-76
2021/09/07 07:01:09;;;;;;;46.13;29.58;;;17.30;99.90;;;;;;4941611;29;20388;-77
2021/09/07 07:03:35;;;;;;;48.35;31.77;;;17.40;99.90;;;;;;4947009;29;20035;-77
2021/09/07 07:06:00;;;;;;;42.97;29.60;;;17.50;99.90;;;;;;4952125;28;20055;-77
2021/09/07 07:08:26;;;;;;;45.58;29.67;;;17.60;99.90;;;;;;4952782;28;20460;-76
2021/09/07 07:10:52;;;;;;;47.25;30.75;;;17.80;99.90;;;;;;4951607;28;20391;-76
2021/09/07 07:13:18;;;;;;;45.63;30.58;;;17.80;99.90;;;;;;4946380;29;20047;-76
2021/09/07 07:15:43;;;;;;;47.28;30.35;;;17.90;99.90;;;;;;4952180;28;20518;-77
2021/09/07 07:18:09;;;;;;;43.05;29.92;;;18.10;99.90;;;;;;4951987;28;20482;-76
2021/09/07 07:20:35;;;;;;;44.22;29.25;;;18.20;99.90;;;;;;4951852;28;20023;-77
2021/09/07 07:23:00;;;;;;;45.22;28.58;;;18.30;99.90;;;;;;4949702;29;20023;-77
2021/09/07 07:25:26;;;;;;;38.90;27.55;;;18.40;99.90;;;;;;4950408;29;20114;-77
2021/09/07 07:27:51;;;;;;;43.63;28.23;;;18.60;99.90;;;;;;4945951;29;20114;-78
2021/09/07 07:30:17;;;;;;;44.10;29.48;;;18.70;99.90;;;;;;4949060;29;20028;-76
2021/09/07 07:32:43;;;;;;;41.30;27.88;;;18.80;99.90;;;;;;4949539;29;20019;-76
2021/09/07 07:35:09;;;;;;;36.72;25.30;;;18.90;99.90;;;;;;4950446;28;20031;-76
2021/09/07 07:37:34;;;;;;;40.13;27.30;;;19.10;99.90;;;;;;4955564;28;20031;-75
2021/09/07 07:40:01;;;;;;;36.50;26.10;;;19.10;99.90;;;;;;4966685;28;20110;-75
2021/09/07 07:42:26;;;;;;;40.03;27.48;;;19.30;99.90;;;;;;4945875;28;20535;-75
2021/09/07 07:44:52;;;;;;;38.92;25.63;;;19.40;99.90;;;;;;4955162;28;20055;-78
2021/09/07 07:47:17;;;;;;;41.92;26.55;;;19.60;99.90;;;;;;4954318;29;20035;-78
2021/09/07 07:49:43;;;;;;;41.65;26.85;;;19.70;99.90;;;;;;4955952;29;20031;-78
2021/09/07 07:52:08;;;;;;;38.83;26.85;;;19.80;99.90;;;;;;4954701;28;20034;-76
2021/09/07 07:54:34;;;;;;;38.22;25.85;;;20.00;99.90;;;;;;4954236;29;20043;-76
2021/09/07 07:57:00;;;;;;;36.03;26.05;;;20.10;99.90;;;;;;4955276;28;20518;-76
2021/09/07 07:59:26;;;;;;;37.42;24.98;;;20.30;99.90;;;;;;4954252;29;20020;-76
2021/09/07 08:01:53;;;;;;;39.33;26.15;;;20.40;99.30;;;;;;4953701;28;20396;-76
2021/09/07 08:04:19;;;;;;;38.33;24.52;;;20.60;98.80;;;;;;4952301;28;20051;-77
2021/09/07 08:06:44;;;;;;;38.20;25.50;;;20.80;98.30;;;;;;4961819;28;20507;-76
2021/09/07 08:09:10;;;;;;;39.55;25.27;;;20.90;97.90;;;;;;4959340;28;20128;-76
2021/09/07 08:11:37;;;;;;;38.15;25.17;;;21.00;97.70;;;;;;4954078;28;20042;-76
2021/09/07 08:14:03;;;;;;;35.00;25.23;;;21.10;97.10;;;;;;4954318;28;20043;-76
2021/09/07 08:16:29;;;;;;;37.03;26.20;;;21.30;96.70;;;;;;4954861;28;20039;-76
2021/09/07 08:18:54;;;;;;;36.17;24.00;;;21.40;96.40;;;;;;4946395;28;20103;-75
2021/09/07 08:21:20;;;;;;;36.22;25.38;;;21.50;96.00;;;;;;4954767;28;20038;-76
2021/09/07 08:23:46;;;;;;;37.50;25.85;;;21.60;95.70;;;;;;4954023;28;20042;-76
2021/09/07 08:26:12;;;;;;;34.17;23.30;;;21.80;95.50;;;;;;4954354;28;20086;-76
2021/09/07 08:28:37;;;;;;;33.47;23.40;;;21.90;94.90;;;;;;4954315;29;20039;-76
2021/09/07 08:31:03;;;;;;;38.00;25.13;;;22.10;94.60;;;;;;4954940;28;20023;-77
2021/09/07 08:33:28;;;;;;;36.70;24.17;;;22.20;93.70;;;;;;4955897;28;20106;-76
2021/09/07 08:35:54;;;;;;;35.90;23.42;;;22.20;93.60;;;;;;4953375;28;20352;-76
2021/09/07 08:38:19;;;;;;;32.33;21.90;;;22.30;93.10;;;;;;4956120;28;20043;-76
2021/09/07 08:40:45;;;;;;;33.00;21.20;;;22.50;92.70;;;;;;4954387;29;20456;-76
2021/09/07 08:43:11;;;;;;;33.65;20.85;;;22.60;92.10;;;;;;4950762;28;20027;-76
2021/09/07 08:45:39;;;;;;;30.25;21.33;;;22.70;91.30;;;;;;4953851;29;20055;-76
2021/09/07 08:48:04;;;;;;;28.73;18.85;;;22.80;91.00;;;;;;4955877;28;20424;-76
2021/09/07 08:50:30;;;;;;;27.45;19.58;;;22.90;90.70;;;;;;4956875;28;20166;-78
2021/09/07 08:52:58;;;;;;;32.55;20.58;;;23.10;90.20;;;;;;4955975;28;20166;-76
2021/09/07 08:55:28;;;;;;;25.98;17.58;;;23.20;89.40;;;;;;4953347;28;20054;-76
2021/09/07 08:57:53;;;;;;;23.48;17.30;;;23.30;88.50;;;;;;4937141;29;20032;-76
2021/09/07 09:00:27;;;;;;;25.63;17.58;;;23.40;87.80;;;;;;4952357;28;20046;-76
2021/09/07 09:02:53;;;;;;;24.05;15.40;;;23.50;86.30;;;;;;4952255;29;20031;-76
2021/09/07 09:05:27;;;;;;;19.80;14.68;;;23.50;85.20;;;;;;4953194;28;20043;-76
2021/09/07 09:07:54;;;;;;;23.42;15.65;;;23.40;85.70;;;;;;4955232;28;20055;-76
2021/09/07 09:10:21;;;;;;;20.10;14.07;;;23.40;85.10;;;;;;4954859;28;20027;-76
2021/09/07 09:12:47;;;;;;;17.73;13.15;;;23.50;84.10;;;;;;4950969;28;20432;-76
2021/09/07 09:15:17;;;;;;;17.25;13.27;;;23.50;83.00;;;;;;4953701;29;20110;-76
2021/09/07 09:17:43;;;;;;;16.98;11.95;;;23.60;82.50;;;;;;4945449;28;20457;-76
2021/09/07 09:20:17;;;;;;;14.82;10.93;;;23.80;82.10;;;;;;4939580;29;20083;-76
2021/09/07 09:22:57;;;;;;;14.27;10.80;;;24.00;80.40;;;;;;4945005;28;20031;-75
2021/09/07 09:25:35;;;;;;;14.02;10.40;;;24.10;79.60;;;;;;4954878;29;20232;-76
2021/09/07 09:28:18;;;;;;;15.27;9.60;;;24.20;78.40;;;;;;4956016;29;20065;-75
2021/09/07 09:30:50;;;;;;;12.90;9.88;;;24.30;77.80;;;;;;4953620;28;20034;-76
2021/09/07 09:33:19;;;;;;;16.00;10.73;;;24.50;76.50;;;;;;4948027;28;20047;-76
2021/09/07 09:35:46;;;;;;;14.30;10.60;;;24.60;74.50;;;;;;4954860;28;20114;-77
2021/09/07 09:38:11;;;;;;;17.67;10.73;;;24.50;73.20;;;;;;4955010;29;20035;-76
2021/09/07 09:40:37;;;;;;;13.45;10.90;;;24.50;73.00;;;;;;4954012;29;20476;-76
2021/09/07 09:43:45;;;;;;;14.25;10.77;;;24.40;72.40;;;;;;4951557;28;20046;-76
2021/09/07 09:46:23;;;;;;;14.57;11.20;;;24.30;71.60;;;;;;4955257;29;20040;-76
2021/09/07 09:48:49;;;;;;;15.38;11.05;;;24.30;72.60;;;;;;4953127;28;20019;-76
2021/09/07 09:51:17;;;;;;;18.13;10.15;;;24.30;72.90;;;;;;4950339;28;20395;-77
2021/09/07 09:53:48;;;;;;;15.02;10.32;;;24.30;72.90;;;;;;4952744;29;20035;-77
2021/09/07 09:56:15;;;;;;;15.18;10.65;;;24.30;72.60;;;;;;4953925;28;20118;-76
2021/09/07 09:58:40;;;;;;;16.30;11.13;;;24.30;73.00;;;;;;4953858;28;20399;-76
2021/09/07 10:01:06;;;;;;;15.63;11.23;;;24.40;72.70;;;;;;4951807;28;20134;-76
2021/09/07 10:03:32;;;;;;;14.10;11.00;;;24.40;72.10;;;;;;4953306;28;20361;-77
2021/09/07 10:05:59;;;;;;;16.77;10.80;;;24.50;71.40;;;;;;4955212;28;20106;-77
2021/09/07 10:08:24;;;;;;;17.05;11.75;;;24.40;70.90;;;;;;4951261;29;20078;-77
2021/09/07 10:11:05;;;;;;;14.80;10.57;;;24.50;70.00;;;;;;4951194;28;20094;-77
2021/09/07 10:13:34;;;;;;;14.63;11.00;;;24.50;70.50;;;;;;4951325;28;20106;-77
2021/09/07 10:16:05;;;;;;;14.55;10.73;;;24.50;70.10;;;;;;4952810;28;20470;-77
2021/09/07 10:19:06;;;;;;;12.60;9.68;;;24.60;69.80;;;;;;4952681;28;20093;-78
2021/09/07 10:26:37;;;;;;;13.75;9.45;;;24.70;69.90;;;;;;4951650;28;20027;-78
2021/09/07 10:29:06;;;;;;;12.73;8.77;;;24.70;69.20;;;;;;4952138;29;20655;-78
2021/09/07 10:31:40;;;;;;;15.60;11.02;;;24.70;69.80;;;;;;4956131;28;20105;-78
2021/09/07 10:34:06;;;;;;;13.52;9.80;;;24.80;69.80;;;;;;4955704;28;20043;-78
2021/09/07 10:36:54;;;;;;;13.10;9.60;;;24.90;70.00;;;;;;4945007;28;20042;-78
2021/09/07 10:39:46;;;;;;;13.00;10.02;;;25.10;70.50;;;;;;4955539;28;20368;-77
2021/09/07 10:42:14;;;;;;;12.35;8.77;;;25.10;68.40;;;;;;4951234;29;20036;-77
2021/09/07 10:44:56;;;;;;;12.15;8.80;;;25.10;68.70;;;;;;4953437;29;20043;-77
2021/09/07 10:47:21;;;;;;;;;;;25.10;69.50;;;;;;4950796;28;20059;-78
2021/09/07 10:49:56;;;;;;;10.43;8.07;;;25.30;69.80;;;;;;4951346;28;20306;-77
2021/09/07 10:52:40;;;;;;;12.43;8.80;;;25.40;69.10;;;;;;4956331;28;20114;-78
2021/09/07 10:55:11;;;;;;;12.75;8.90;;;25.50;68.20;;;;;;4949643;28;20460;-78
2021/09/07 10:57:54;;;;;;;12.98;8.80;;;25.60;67.60;;;;;;4953665;29;20453;-78
2021/09/07 11:00:23;;;;;;;12.70;9.15;;;25.50;67.10;;;;;;4951681;28;20508;-78
2021/09/07 11:02:53;;;;;;;12.23;9.35;;;25.50;67.40;;;;;;4953728;29;20066;-78
2021/09/07 11:05:28;;;;;;;13.07;9.35;;;25.50;66.90;;;;;;4953955;29;20032;-78
2021/09/07 11:08:05;;;;;;;12.43;9.35;;;25.60;67.00;;;;;;4953249;28;20050;-78
2021/09/07 11:10:34;;;;;;;11.75;9.27;;;25.70;67.50;;;;;;4950794;28;20027;-79
2021/09/07 11:13:17;;;;;;;19.33;11.27;;;25.90;66.90;;;;;;4954763;28;20035;-78
2021/09/07 11:15:43;;;;;;;11.68;9.60;;;26.00;66.60;;;;;;4948190;28;20070;-78
2021/09/07 11:18:15;;;;;;;12.75;9.65;;;26.00;66.30;;;;;;4957877;28;20035;-78
2021/09/07 11:20:48;;;;;;;13.30;10.45;;;26.20;66.10;;;;;;4958382;28;20027;-78
2021/09/07 11:23:20;;;;;;;12.85;9.60;;;26.20;66.10;;;;;;4959593;29;20054;-78
2021/09/07 11:25:50;;;;;;;;;;;26.30;66.80;;;;;;4959367;29;20494;-78
2021/09/07 11:28:17;;;;;;;13.45;10.07;;;26.30;67.00;;;;;;4951862;28;19910;-79
2021/09/07 11:30:48;;;;;;;14.13;10.98;;;26.20;66.50;;;;;;4957454;28;20035;-79
2021/09/07 11:33:16;;;;;;;16.63;12.52;;;26.20;66.50;;;;;;4958114;28;20043;-80
2021/09/07 11:35:47;;;;;;;17.17;11.77;;;26.30;65.80;;;;;;4958481;28;20031;-79
2021/09/07 11:38:21;;;;;;;18.40;11.88;;;26.30;65.40;;;;;;4957580;28;20063;-79
2021/09/07 11:40:48;;;;;;;15.93;11.80;;;26.30;65.80;;;;;;4956577;28;20059;-79
2021/09/07 11:43:14;;;;;;;16.55;12.02;;;26.40;65.50;;;;;;4955385;28;20027;-79
2021/09/07 11:45:40;;;;;;;16.92;11.55;;;26.40;65.80;;;;;;4951139;28;20066;-78
2021/09/07 11:48:08;;;;;;;15.27;11.38;;;26.50;65.70;;;;;;4956396;28;20030;-78
2021/09/07 11:50:39;;;;;;;16.40;11.30;;;26.60;65.30;;;;;;4956367;29;20028;-78
2021/09/07 11:53:09;;;;;;;14.82;10.77;;;26.60;64.50;;;;;;4954030;28;20066;-78
2021/09/07 11:55:53;;;;;;;15.02;10.60;;;26.60;64.80;;;;;;4967228;28;20027;-78
2021/09/07 11:58:28;;;;;;;16.05;11.57;;;26.60;64.90;;;;;;4952653;28;20132;-78
2021/09/07 12:01:05;;;;;;;16.13;10.27;;;26.60;64.30;;;;;;4953683;28;20027;-79
2021/09/07 12:03:47;;;;;;;18.17;12.57;;;26.70;64.80;;;;;;4957552;28;20400;-78
2021/09/07 12:06:32;;;;;;;14.70;11.52;;;26.70;65.00;;;;;;4951119;29;20027;-79
2021/09/07 12:09:28;;;;;;;16.33;11.77;;;26.80;64.90;;;;;;4954151;29;20035;-76
2021/09/07 12:12:08;;;;;;;17.83;13.20;;;26.90;64.80;;;;;;4939668;29;20342;-78
2021/09/07 12:14:45;;;;;;;16.38;11.95;;;27.00;64.40;;;;;;4969662;28;20043;-79
2021/09/07 12:17:15;;;;;;;17.17;12.20;;;27.00;65.00;;;;;;4946127;28;20059;-78
2021/09/07 12:19:49;;;;;;;15.20;10.80;;;27.10;64.60;;;;;;4954275;28;20098;-78
2021/09/07 12:22:22;;;;;;;17.58;11.32;;;27.20;64.60;;;;;;4956199;28;20075;-78
2021/09/07 12:25:00;;;;;;;14.82;11.15;;;27.20;64.20;;;;;;4957415;29;20027;-79
2021/09/07 12:27:28;;;;;;;12.90;11.27;;;27.40;63.70;;;;;;4955442;29;20109;-77
2021/09/07 12:30:21;;;;;;;15.65;11.32;;;27.40;63.30;;;;;;4959107;28;20471;-77
2021/09/07 12:32:56;;;;;;;12.73;9.77;;;27.40;62.50;;;;;;4952770;28;20043;-77
2021/09/07 12:35:42;;;;;;;15.52;11.43;;;27.20;62.80;;;;;;4956047;29;20106;-77